Time;durP1;ratioP1;P1;durP2;ratioP2;P2;SDS_P1;SDS_P2;PMS_P1;PMS_P2;Temp;Humidity;BMP_temperature;BMP_pressure;BME280_temperature;BME280_humidity;BME280_pressure;Samples;Min_cycle;Max_cycle;Signal;HPM_P1;HPM_P2
2023/03/03 00:01:25;;;;;;;217.80;98.10;;;6.00;99.90;;;;;;5029799;28;20042;-78
2023/03/03 00:03:54;;;;;;;203.63;93.75;;;6.00;99.90;;;;;;5030355;28;20045;-77
2023/03/03 00:06:23;;;;;;;203.27;93.50;;;6.00;99.90;;;;;;5030466;28;20133;-77
2023/03/03 00:08:51;;;;;;;193.80;87.80;;;6.00;99.90;;;;;;5029834;28;20080;-78
2023/03/03 00:11:18;;;;;;;182.10;87.15;;;5.90;99.90;;;;;;5030501;28;20127;-79
2023/03/03 00:13:48;;;;;;;170.98;80.75;;;5.90;99.90;;;;;;5029781;28;20041;-79
2023/03/03 00:16:23;;;;;;;187.95;85.97;;;5.80;99.90;;;;;;5031075;28;20158;-78
2023/03/03 00:18:51;;;;;;;164.88;77.65;;;5.80;99.90;;;;;;5030871;28;20073;-77
2023/03/03 00:21:29;;;;;;;153.60;69.40;;;5.70;99.90;;;;;;5031310;28;20041;-76
2023/03/03 00:24:15;;;;;;;145.93;66.60;;;5.60;99.90;;;;;;5031445;28;20382;-79
2023/03/03 00:26:45;;;;;;;149.82;66.40;;;5.50;99.90;;;;;;5031278;28;20119;-78
2023/03/03 00:29:35;;;;;;;149.90;69.53;;;5.50;99.90;;;;;;5046192;28;20077;-78
2023/03/03 00:32:27;;;;;;;157.65;75.00;;;5.50;99.90;;;;;;5046383;28;20049;-78
2023/03/03 00:34:59;;;;;;;172.15;84.68;;;5.40;99.90;;;;;;5029735;28;20060;-79
2023/03/03 00:37:29;;;;;;;165.40;84.07;;;5.30;99.90;;;;;;5030309;28;20081;-79
2023/03/03 00:40:16;;;;;;;175.45;87.18;;;5.30;99.90;;;;;;5030215;28;20065;-77
2023/03/03 00:42:49;;;;;;;184.55;91.03;;;5.30;99.90;;;;;;5029183;28;20396;-78
2023/03/03 00:45:29;;;;;;;174.43;83.97;;;5.40;99.90;;;;;;5030682;28;20091;-77
2023/03/03 00:47:59;;;;;;;187.38;84.47;;;5.40;99.90;;;;;;5029723;28;20119;-76
2023/03/03 00:50:34;;;;;;;170.63;81.05;;;5.50;99.90;;;;;;5030726;28;20402;-78
2023/03/03 00:53:06;;;;;;;157.10;78.32;;;5.50;99.90;;;;;;5031693;28;20037;-78
2023/03/03 00:55:35;;;;;;;150.00;77.35;;;5.40;99.90;;;;;;5030046;28;20044;-79
2023/03/03 00:58:03;;;;;;;146.40;75.13;;;5.30;99.90;;;;;;5030682;28;20099;-77
2023/03/03 01:00:36;;;;;;;151.25;74.45;;;5.30;99.90;;;;;;5028893;28;20494;-78
2023/03/03 01:03:09;;;;;;;133.18;71.35;;;5.30;99.90;;;;;;5029503;28;20497;-78
2023/03/03 01:05:37;;;;;;;132.38;66.53;;;5.30;99.90;;;;;;5029380;28;20051;-78
2023/03/03 01:08:05;;;;;;;132.27;65.95;;;5.10;99.90;;;;;;5052278;28;20160;-80
2023/03/03 01:10:36;;;;;;;127.13;65.43;;;5.10;99.90;;;;;;5032024;28;20061;-78
2023/03/03 01:13:04;;;;;;;124.32;62.10;;;5.10;99.90;;;;;;5040239;28;20029;-80
2023/03/03 01:15:32;;;;;;;122.05;59.38;;;5.10;99.90;;;;;;5036805;28;20060;-79
2023/03/03 01:18:00;;;;;;;121.50;57.25;;;5.20;99.90;;;;;;5040511;28;20042;-79
2023/03/03 01:20:29;;;;;;;122.90;59.92;;;5.20;99.90;;;;;;5039265;28;20061;-78
2023/03/03 01:22:56;;;;;;;123.32;59.75;;;5.20;99.90;;;;;;5031200;28;20050;-77
2023/03/03 01:25:24;;;;;;;122.53;56.65;;;5.30;99.90;;;;;;5028260;28;20049;-78
2023/03/03 01:27:52;;;;;;;112.07;55.40;;;5.30;99.90;;;;;;5040028;28;20519;-77
2023/03/03 01:30:19;;;;;;;129.93;58.25;;;5.30;99.90;;;;;;5045712;28;20083;-80
2023/03/03 01:32:47;;;;;;;134.15;63.00;;;5.30;99.90;;;;;;5034987;28;20049;-79
2023/03/03 01:35:15;;;;;;;141.02;68.40;;;5.30;99.90;;;;;;5031978;28;20041;-77
2023/03/03 01:37:44;;;;;;;124.25;60.75;;;5.30;99.90;;;;;;5029036;28;20117;-79
2023/03/03 01:40:15;;;;;;;160.88;75.82;;;5.40;99.90;;;;;;5028759;28;20106;-77
2023/03/03 01:42:43;;;;;;;154.85;74.10;;;5.40;99.90;;;;;;5028182;28;20045;-80
2023/03/03 01:45:17;;;;;;;174.57;81.20;;;5.50;99.90;;;;;;5028429;28;20412;-77
2023/03/03 01:47:50;;;;;;;156.63;73.10;;;5.50;99.90;;;;;;5027299;28;20448;-79
2023/03/03 01:50:28;;;;;;;146.00;70.85;;;5.50;99.90;;;;;;5027969;28;20038;-77
2023/03/03 01:53:00;;;;;;;142.57;71.68;;;5.60;99.90;;;;;;5035821;28;20138;-80
2023/03/03 01:55:34;;;;;;;101.05;53.13;;;5.70;99.90;;;;;;5030868;28;20076;-79
2023/03/03 01:58:05;;;;;;;116.25;57.72;;;5.60;99.90;;;;;;5029948;28;20065;-76
2023/03/03 02:00:34;;;;;;;126.82;63.53;;;5.60;99.90;;;;;;5044825;28;20064;-80
2023/03/03 02:03:02;;;;;;;109.38;55.95;;;5.60;99.90;;;;;;5027857;28;20042;-79
2023/03/03 02:05:30;;;;;;;132.88;64.80;;;5.50;99.90;;;;;;5029458;28;20048;-79
2023/03/03 02:07:59;;;;;;;113.82;59.25;;;5.50;99.90;;;;;;5027495;28;20397;-79
2023/03/03 02:10:28;;;;;;;108.50;57.42;;;5.50;99.90;;;;;;5028412;28;20069;-79
2023/03/03 02:12:57;;;;;;;119.95;60.90;;;5.40;99.90;;;;;;5027090;28;20044;-78
2023/03/03 02:15:27;;;;;;;107.43;56.58;;;5.40;99.90;;;;;;5027312;28;20444;-80
2023/03/03 02:17:57;;;;;;;124.35;63.15;;;5.40;99.90;;;;;;5027650;28;20042;-79
2023/03/03 02:20:37;;;;;;;157.20;77.07;;;5.30;99.90;;;;;;5029296;28;20037;-80
2023/03/03 02:23:13;;;;;;;166.00;77.85;;;5.40;99.90;;;;;;5027881;28;20045;-79
2023/03/03 02:25:47;;;;;;;172.45;82.60;;;5.40;99.90;;;;;;5043495;28;20045;-79
2023/03/03 02:28:16;;;;;;;194.77;92.65;;;5.40;99.90;;;;;;5027472;28;20041;-81
2023/03/03 02:30:44;;;;;;;202.13;91.93;;;5.40;99.90;;;;;;5027704;28;20620;-78
2023/03/03 02:33:12;;;;;;;191.55;94.97;;;5.40;99.90;;;;;;5029336;28;20058;-78
2023/03/03 02:35:41;;;;;;;172.80;84.70;;;5.50;99.90;;;;;;5029287;28;20140;-79
2023/03/03 02:38:17;;;;;;;177.73;85.70;;;5.40;99.90;;;;;;5031861;28;20452;-77
2023/03/03 02:40:52;;;;;;;176.55;87.07;;;5.40;99.90;;;;;;5031296;28;20049;-78
2023/03/03 02:43:24;;;;;;;168.50;82.32;;;5.40;99.90;;;;;;5032508;28;20076;-80
2023/03/03 02:45:52;;;;;;;144.68;75.90;;;5.40;99.90;;;;;;5031472;28;20046;-79
2023/03/03 02:48:19;;;;;;;125.45;66.63;;;5.30;99.90;;;;;;5035169;28;20044;-78
2023/03/03 02:50:47;;;;;;;133.10;64.45;;;5.30;99.90;;;;;;5031462;28;20073;-77
2023/03/03 02:53:14;;;;;;;121.43;65.05;;;5.30;99.90;;;;;;5031150;28;20107;-79
2023/03/03 02:55:42;;;;;;;102.30;54.90;;;5.20;99.90;;;;;;5047117;28;20045;-81
2023/03/03 02:58:10;;;;;;;103.82;56.35;;;5.10;99.90;;;;;;5031519;28;20064;-79
2023/03/03 03:00:39;;;;;;;102.63;57.35;;;5.10;99.90;;;;;;5031822;28;20386;-78
2023/03/03 03:03:07;;;;;;;124.90;67.40;;;5.10;99.90;;;;;;5036197;28;20076;-81
2023/03/03 03:05:39;;;;;;;111.72;63.53;;;5.20;99.90;;;;;;5033400;28;20049;-79
2023/03/03 03:08:06;;;;;;;108.85;64.55;;;5.20;99.90;;;;;;5031283;28;20440;-78
2023/03/03 03:10:34;;;;;;;127.13;75.63;;;5.20;99.90;;;;;;5033173;28;20485;-79
2023/03/03 03:13:03;;;;;;;124.68;76.40;;;5.20;99.90;;;;;;5034353;23;20050;-81
2023/03/03 03:15:32;;;;;;;133.70;77.13;;;5.20;99.90;;;;;;5010860;28;20065;-82
2023/03/03 03:18:01;;;;;;;135.50;79.22;;;5.20;99.90;;;;;;5012419;28;20482;-79
2023/03/03 03:20:29;;;;;;;153.95;83.95;;;5.20;99.90;;;;;;5011967;28;20053;-80
2023/03/03 03:22:56;;;;;;;133.05;74.32;;;5.30;99.90;;;;;;5011753;28;20054;-81
2023/03/03 03:25:24;;;;;;;156.05;84.70;;;5.30;99.90;;;;;;5011782;28;20048;-81
2023/03/03 03:27:51;;;;;;;148.18;80.15;;;5.30;99.90;;;;;;5013853;28;20042;-81
2023/03/03 03:30:21;;;;;;;152.30;76.32;;;5.30;99.90;;;;;;5014696;28;20046;-81
2023/03/03 03:32:49;;;;;;;160.23;82.55;;;5.20;99.90;;;;;;5016742;28;20148;-80
2023/03/03 03:35:18;;;;;;;162.90;83.32;;;5.20;99.90;;;;;;5011410;28;20038;-79
2023/03/03 03:37:45;;;;;;;161.52;80.80;;;5.20;99.90;;;;;;5012347;28;20050;-81
2023/03/03 03:40:13;;;;;;;163.32;82.72;;;5.20;99.90;;;;;;5011355;28;20049;-82
2023/03/03 03:42:42;;;;;;;159.38;79.28;;;5.00;99.90;;;;;;5012279;28;20042;-80
2023/03/03 03:45:14;;;;;;;164.77;81.30;;;5.00;99.90;;;;;;5012702;28;20137;-83
2023/03/03 03:47:43;;;;;;;161.38;83.30;;;5.00;99.90;;;;;;4994953;28;20042;-82
2023/03/03 03:50:12;;;;;;;169.88;83.55;;;5.00;99.90;;;;;;4997269;28;20042;-81
2023/03/03 03:52:44;;;;;;;162.55;81.55;;;5.00;99.90;;;;;;4996898;28;20050;-83
2023/03/03 03:55:12;;;;;;;156.52;80.72;;;5.10;99.90;;;;;;5029899;28;20045;-82
2023/03/03 03:57:41;;;;;;;165.65;82.28;;;5.10;99.90;;;;;;5014232;28;20049;-81
2023/03/03 04:00:10;;;;;;;174.63;83.70;;;5.10;99.90;;;;;;5013871;28;20042;-82
2023/03/03 04:02:41;;;;;;;169.32;84.85;;;5.10;99.90;;;;;;5015510;28;20498;-82
2023/03/03 04:05:12;;;;;;;171.13;82.55;;;5.20;99.90;;;;;;5016071;28;20102;-84
2023/03/03 04:07:42;;;;;;;175.68;87.70;;;5.10;99.90;;;;;;5029493;28;20113;-84
2023/03/03 04:10:11;;;;;;;162.40;84.07;;;5.10;99.90;;;;;;5034385;28;20033;-81
2023/03/03 04:12:40;;;;;;;168.50;88.20;;;5.10;99.90;;;;;;5034875;28;20061;-82
2023/03/03 04:15:13;;;;;;;164.98;87.45;;;5.10;99.90;;;;;;5038660;28;20061;-82
2023/03/03 04:18:01;;;;;;;185.63;91.95;;;5.00;99.90;;;;;;5027146;28;20406;-82
2023/03/03 04:20:29;;;;;;;166.70;85.10;;;5.10;99.90;;;;;;5015489;28;20049;-76
2023/03/03 04:22:58;;;;;;;166.80;86.68;;;5.10;99.90;;;;;;5015282;28;20045;-82
2023/03/03 04:25:26;;;;;;;160.43;82.80;;;5.10;99.90;;;;;;5031421;28;20118;-79
2023/03/03 04:27:55;;;;;;;177.60;90.60;;;5.00;99.90;;;;;;5034300;28;20059;-82
2023/03/03 04:30:25;;;;;;;188.18;93.47;;;5.00;99.90;;;;;;5036528;28;20105;-80
2023/03/03 04:32:56;;;;;;;186.80;98.35;;;5.00;99.90;;;;;;5014461;28;20053;-81
2023/03/03 04:35:27;;;;;;;174.02;91.45;;;5.00;99.90;;;;;;5014028;28;20076;-81
2023/03/03 04:37:57;;;;;;;179.40;101.75;;;4.90;99.90;;;;;;5016110;28;20076;-81
2023/03/03 04:40:26;;;;;;;183.88;98.47;;;4.90;99.90;;;;;;5020039;28;20104;-82
2023/03/03 04:42:55;;;;;;;176.98;100.25;;;4.90;99.90;;;;;;5022025;28;20132;-80
2023/03/03 04:45:22;;;;;;;171.25;96.43;;;4.90;99.90;;;;;;5017566;28;20046;-81
2023/03/03 04:47:53;;;;;;;172.68;91.88;;;4.90;99.90;;;;;;5017444;28;20045;-80
2023/03/03 04:50:20;;;;;;;174.02;94.93;;;4.90;99.90;;;;;;5032510;28;20042;-78
2023/03/03 04:52:48;;;;;;;166.38;93.88;;;4.90;99.90;;;;;;5045473;28;20122;-81
2023/03/03 04:55:18;;;;;;;164.40;87.63;;;4.90;99.90;;;;;;5035332;28;20049;-81
2023/03/03 04:57:49;;;;;;;157.27;86.80;;;5.00;99.90;;;;;;5035690;28;20030;-80
2023/03/03 05:00:18;;;;;;;151.48;83.18;;;5.00;99.90;;;;;;5035865;28;20184;-80
2023/03/03 05:02:47;;;;;;;161.43;81.95;;;5.00;99.90;;;;;;5038041;28;20029;-81
2023/03/03 05:05:15;;;;;;;155.23;83.15;;;5.00;99.90;;;;;;5038915;28;20052;-79
2023/03/03 05:07:42;;;;;;;158.57;83.68;;;5.00;99.90;;;;;;5029946;28;20026;-81
2023/03/03 05:10:11;;;;;;;166.88;87.53;;;5.00;99.90;;;;;;5026219;28;20475;-80
2023/03/03 05:12:38;;;;;;;165.65;85.05;;;5.00;99.90;;;;;;5021502;28;20072;-80
2023/03/03 05:15:08;;;;;;;154.43;84.68;;;5.00;99.90;;;;;;5012420;28;20042;-82
2023/03/03 05:17:36;;;;;;;171.02;87.32;;;5.10;99.90;;;;;;5013652;28;20044;-81
2023/03/03 05:20:04;;;;;;;163.90;88.75;;;5.10;99.90;;;;;;5014170;28;20069;-81
2023/03/03 05:22:31;;;;;;;162.82;89.75;;;5.10;99.90;;;;;;5016520;28;20041;-81
2023/03/03 05:24:59;;;;;;;163.63;88.78;;;5.10;99.90;;;;;;5012703;28;20229;-80
2023/03/03 05:27:26;;;;;;;171.75;91.10;;;5.20;99.90;;;;;;5012405;28;20073;-80
2023/03/03 05:29:54;;;;;;;170.23;92.22;;;5.10;99.90;;;;;;5011544;28;20794;-80
2023/03/03 05:32:23;;;;;;;167.30;88.90;;;5.10;99.90;;;;;;5012760;28;20490;-79
2023/03/03 05:34:51;;;;;;;165.52;87.80;;;5.10;99.90;;;;;;5012160;28;20059;-81
2023/03/03 05:37:22;;;;;;;174.93;91.60;;;5.00;99.90;;;;;;5012385;28;20064;-80
2023/03/03 05:39:49;;;;;;;160.57;84.90;;;5.10;99.90;;;;;;5013751;28;20528;-79
2023/03/03 05:42:17;;;;;;;160.68;83.43;;;5.10;99.90;;;;;;5012330;28;20053;-79
2023/03/03 05:44:44;;;;;;;165.13;84.13;;;5.10;99.90;;;;;;5012512;28;20041;-79
2023/03/03 05:47:12;;;;;;;184.13;91.40;;;5.10;99.90;;;;;;5012073;28;20509;-80
2023/03/03 05:49:41;;;;;;;175.00;88.85;;;5.10;99.90;;;;;;5011580;28;20045;-79
2023/03/03 05:52:08;;;;;;;186.02;94.40;;;5.10;99.90;;;;;;5012770;28;20042;-80
2023/03/03 05:54:35;;;;;;;178.25;92.53;;;5.20;99.90;;;;;;5011912;28;20240;-79
2023/03/03 05:57:03;;;;;;;180.35;95.00;;;5.20;99.90;;;;;;5011223;28;20406;-79
2023/03/03 05:59:30;;;;;;;187.95;98.07;;;5.30;99.90;;;;;;4996517;28;20145;-79
2023/03/03 06:01:58;;;;;;;180.48;92.05;;;5.40;99.90;;;;;;5012681;28;20077;-79
2023/03/03 06:04:25;;;;;;;181.20;89.97;;;5.40;99.90;;;;;;5012483;28;20045;-79
2023/03/03 06:06:56;;;;;;;186.50;94.25;;;5.50;99.90;;;;;;5012710;28;20041;-79
2023/03/03 06:09:25;;;;;;;183.55;92.82;;;5.60;99.90;;;;;;5016227;28;20144;-81
2023/03/03 06:11:52;;;;;;;192.35;100.63;;;5.60;99.90;;;;;;5013113;28;20030;-80
2023/03/03 06:14:20;;;;;;;201.95;106.00;;;5.60;99.90;;;;;;5010132;28;20508;-80
2023/03/03 06:16:48;;;;;;;171.82;89.60;;;5.60;99.90;;;;;;5013586;28;20410;-80
2023/03/03 06:19:16;;;;;;;168.20;88.85;;;5.50;99.90;;;;;;5013293;28;20045;-79
2023/03/03 06:21:43;;;;;;;174.85;93.85;;;5.50;99.90;;;;;;5022648;28;20105;-80
2023/03/03 06:24:12;;;;;;;161.15;88.82;;;5.50;99.90;;;;;;5030743;28;20110;-80
2023/03/03 06:26:40;;;;;;;160.82;85.20;;;5.50;99.90;;;;;;5027326;28;20061;-81
2023/03/03 06:29:08;;;;;;;171.30;90.30;;;5.50;99.90;;;;;;5023197;28;20053;-79
2023/03/03 06:31:36;;;;;;;149.15;84.93;;;5.50;99.90;;;;;;5020025;28;20046;-80
2023/03/03 06:34:03;;;;;;;152.60;83.20;;;5.50;99.90;;;;;;5014023;28;20052;-79
2023/03/03 06:36:30;;;;;;;142.02;79.85;;;5.50;99.90;;;;;;5026022;28;20116;-80
2023/03/03 06:38:58;;;;;;;128.32;73.50;;;5.50;99.90;;;;;;5026769;28;20041;-80
2023/03/03 06:41:33;;;;;;;133.02;74.32;;;5.50;99.90;;;;;;5018560;28;20068;-80
2023/03/03 06:44:01;;;;;;;130.90;74.50;;;5.40;99.90;;;;;;5021903;28;20486;-80
2023/03/03 06:46:28;;;;;;;136.48;81.07;;;5.50;99.90;;;;;;5025668;28;20105;-80
2023/03/03 06:48:56;;;;;;;138.98;80.82;;;5.50;99.90;;;;;;5028942;28;20141;-81
2023/03/03 06:51:30;;;;;;;148.63;87.80;;;5.50;99.90;;;;;;5025156;28;20101;-81
2023/03/03 06:54:00;;;;;;;120.25;70.97;;;5.50;99.90;;;;;;5018656;28;20125;-79
2023/03/03 06:56:27;;;;;;;118.25;70.28;;;5.50;99.90;;;;;;5014928;28;20054;-78
2023/03/03 06:58:58;;;;;;;101.63;62.17;;;5.60;99.90;;;;;;5014439;28;20057;-77
2023/03/03 07:01:26;;;;;;;116.88;70.38;;;5.60;99.90;;;;;;5013795;28;20042;-78
2023/03/03 07:03:54;;;;;;;124.85;76.18;;;5.70;99.90;;;;;;5013146;28;20042;-77
2023/03/03 07:06:25;;;;;;;152.45;90.43;;;5.90;99.90;;;;;;5012655;28;20566;-81
2023/03/03 07:08:53;;;;;;;192.80;99.93;;;5.90;1.00;;;;;;5011166;28;20046;-78
2023/03/03 07:11:23;;;;;;;140.32;86.00;;;6.10;1.00;;;;;;5013879;28;20042;-80
2023/03/03 07:13:52;;;;;;;132.18;77.13;;;6.10;99.90;;;;;;5013576;28;20057;-80
2023/03/03 07:16:26;;;;;;;175.60;95.00;;;6.10;1.00;;;;;;5012140;28;20040;-80
2023/03/03 07:18:55;;;;;;;180.43;99.15;;;6.20;23.40;;;;;;5013251;28;20038;-79
2023/03/03 07:21:26;;;;;;;148.02;84.28;;;6.20;1.00;;;;;;5017207;28;20042;-81
2023/03/03 07:23:54;;;;;;;141.48;84.35;;;6.10;99.90;;;;;;5018226;28;20046;-80
2023/03/03 07:26:27;;;;;;;174.57;98.05;;;6.10;99.90;;;;;;5024521;28;20513;-79
2023/03/03 07:28:58;;;;;;;143.55;88.50;;;6.20;25.90;;;;;;5018430;28;20041;-81
2023/03/03 07:31:36;;;;;;;143.60;89.82;;;6.20;99.90;;;;;;5015428;28;20053;-79
2023/03/03 07:34:14;;;;;;;153.82;92.38;;;6.20;1.00;;;;;;5016818;28;20118;-78
2023/03/03 07:36:42;;;;;;;141.57;89.07;;;6.10;1.00;;;;;;5030001;28;20042;-78
2023/03/03 07:39:25;;;;;;;136.40;86.57;;;6.10;1.00;;;;;;5027160;28;20113;-78
2023/03/03 07:41:54;;;;;;;134.52;84.80;;;6.10;99.90;;;;;;5019893;28;20041;-78
2023/03/03 07:44:25;;;;;;;144.43;87.40;;;6.10;1.00;;;;;;5019900;28;20046;-76
2023/03/03 07:46:54;;;;;;;141.32;85.90;;;6.10;1.00;;;;;;5025623;28;20048;-78
2023/03/03 07:49:24;;;;;;;138.52;86.30;;;6.10;99.90;;;;;;5020567;28;20041;-80
2023/03/03 07:51:56;;;;;;;153.13;90.72;;;6.10;1.00;;;;;;5020868;28;20069;-79
2023/03/03 07:54:32;;;;;;;151.05;89.22;;;6.30;1.00;;;;;;5020975;28;20057;-79
2023/03/03 07:57:06;;;;;;;164.93;98.25;;;6.30;99.90;;;;;;5019177;28;20053;-78
2023/03/03 07:59:37;;;;;;;234.30;129.13;;;6.20;99.90;;;;;;5020797;28;20042;-80
2023/03/03 08:02:16;;;;;;;222.40;122.10;;;6.20;1.00;;;;;;5020332;28;20040;-78
2023/03/03 08:04:49;;;;;;;179.63;106.10;;;6.30;99.90;;;;;;5019262;28;20045;-81
2023/03/03 08:07:18;;;;;;;171.25;101.20;;;6.20;1.00;;;;;;5037118;28;20069;-79
2023/03/03 08:09:51;;;;;;;165.70;98.50;;;6.20;99.90;;;;;;5037306;28;20046;-81
2023/03/03 08:12:41;;;;;;;167.63;97.55;;;6.20;1.00;;;;;;5037463;28;20058;-79
2023/03/03 08:15:23;;;;;;;162.80;96.22;;;6.30;99.90;;;;;;5019510;28;20047;-80
2023/03/03 08:17:55;;;;;;;167.45;98.38;;;6.30;1.00;;;;;;5016575;28;20046;-80
2023/03/03 08:20:54;;;;;;;172.43;105.30;;;6.50;1.00;;;;;;5016035;28;20038;-78
2023/03/03 08:23:23;;;;;;;194.55;113.38;;;6.50;99.90;;;;;;5011930;28;20053;-80
2023/03/03 08:25:55;;;;;;;193.60;113.50;;;6.50;99.90;;;;;;5013540;28;20045;-79
2023/03/03 08:28:22;;;;;;;175.88;104.75;;;6.50;1.00;;;;;;5015791;28;20073;-80
2023/03/03 08:30:53;;;;;;;174.82;102.00;;;6.50;1.00;;;;;;5016016;28;20141;-80
2023/03/03 08:33:22;;;;;;;178.90;103.40;;;6.50;1.00;;;;;;5014076;28;20415;-80
2023/03/03 08:35:50;;;;;;;181.65;106.15;;;6.50;1.00;;;;;;5015929;28;20053;-80
2023/03/03 08:38:19;;;;;;;187.95;111.18;;;6.50;1.00;;;;;;5031422;28;20045;-80
2023/03/03 08:40:48;;;;;;;186.07;109.28;;;6.50;34.80;;;;;;5020415;28;20494;-79
2023/03/03 08:43:20;;;;;;;193.50;111.75;;;6.50;99.90;;;;;;5017566;28;20045;-78
2023/03/03 08:45:49;;;;;;;177.55;109.70;;;6.50;99.90;;;;;;5015482;28;20100;-78
2023/03/03 08:48:17;;;;;;;174.63;103.65;;;6.30;1.00;;;;;;5015528;28;20096;-78
2023/03/03 08:50:46;;;;;;;164.57;95.85;;;6.20;99.90;;;;;;5020353;28;20046;-79
2023/03/03 08:53:15;;;;;;;146.20;89.60;;;6.30;1.00;;;;;;5018000;28;20068;-78
2023/03/03 08:55:43;;;;;;;155.90;92.00;;;6.40;1.00;;;;;;5022772;28;20125;-79
2023/03/03 08:58:11;;;;;;;151.90;90.65;;;6.40;99.90;;;;;;5016485;28;20405;-79
2023/03/03 09:00:39;;;;;;;144.45;85.60;;;6.50;1.00;;;;;;5013083;28;20042;-80
2023/03/03 09:03:07;;;;;;;166.10;97.25;;;6.50;1.00;;;;;;5016522;28;20046;-81
2023/03/03 09:05:36;;;;;;;179.27;110.07;;;6.70;3.70;;;;;;5017913;28;20049;-80
2023/03/03 09:08:08;;;;;;;163.48;100.03;;;7.00;99.90;;;;;;5018305;28;20383;-79
2023/03/03 09:10:35;;;;;;;163.60;98.22;;;7.00;1.00;;;;;;5020235;28;20042;-79
2023/03/03 09:13:08;;;;;;;175.93;101.25;;;7.10;1.00;;;;;;5028539;28;20141;-79
2023/03/03 09:15:38;;;;;;;196.70;104.07;;;7.10;1.00;;;;;;5026294;28;20050;-80
2023/03/03 09:18:15;;;;;;;211.52;108.38;;;7.20;1.00;;;;;;5034310;28;20053;-81
2023/03/03 09:20:44;;;;;;;213.65;110.22;;;7.20;1.00;;;;;;5035654;28;20081;-80
2023/03/03 09:26:30;;;;;;;194.88;104.13;;;6.90;99.90;;;;;;5013550;28;20054;-77
2023/03/03 09:29:18;;;;;;;199.65;104.88;;;6.90;1.00;;;;;;5014209;28;20104;-79
2023/03/03 09:31:52;;;;;;;195.07;105.60;;;6.90;1.00;;;;;;5016412;28;20058;-80
2023/03/03 09:34:23;;;;;;;193.77;102.05;;;7.00;1.00;;;;;;5018661;28;20215;-79
2023/03/03 09:36:55;;;;;;;189.32;102.03;;;7.00;99.90;;;;;;5028511;28;20111;-81
2023/03/03 09:39:25;;;;;;;187.07;102.43;;;7.10;1.00;;;;;;5032920;28;20049;-81
2023/03/03 09:42:15;;;;;;;200.80;105.38;;;7.20;53.20;;;;;;5029654;28;20061;-80
2023/03/03 09:45:01;;;;;;;217.50;115.35;;;7.40;1.00;;;;;;5022618;28;20487;-79
2023/03/03 09:47:44;;;;;;;175.88;93.10;;;7.40;99.90;;;;;;5010488;28;20417;-79
2023/03/03 09:50:26;;;;;;;183.88;98.88;;;7.30;1.00;;;;;;5026844;28;20141;-79
2023/03/03 09:53:02;;;;;;;188.20;101.22;;;7.10;1.00;;;;;;5011863;28;20046;-79
2023/03/03 09:55:40;;;;;;;212.23;112.95;;;7.30;1.00;;;;;;5010343;28;20136;-79
2023/03/03 09:58:24;;;;;;;200.75;107.03;;;7.40;1.00;;;;;;5011939;28;20415;-79
2023/03/03 10:01:02;;;;;;;182.68;98.45;;;7.50;99.90;;;;;;5010414;28;20065;-80
2023/03/03 10:03:56;;;;;;;206.48;112.07;;;7.70;1.00;;;;;;5012068;28;20085;-80
2023/03/03 10:06:30;;;;;;;206.77;106.05;;;7.80;1.00;;;;;;5021839;28;20096;-80
2023/03/03 10:09:09;;;;;;;199.85;105.28;;;7.80;99.90;;;;;;5016249;28;20113;-79
2023/03/03 10:11:49;;;;;;;215.45;112.07;;;7.80;1.00;;;;;;5011391;28;20071;-79
2023/03/03 10:14:40;;;;;;;213.93;113.75;;;7.50;1.00;;;;;;5011570;28;20061;-79
2023/03/03 10:17:29;;;;;;;209.82;113.32;;;7.40;1.00;;;;;;5009469;28;20187;-79
2023/03/03 10:20:11;;;;;;;208.52;112.70;;;7.30;99.90;;;;;;5014711;28;20050;-81
2023/03/03 10:22:48;;;;;;;219.25;114.65;;;7.40;99.90;;;;;;5018771;28;20335;-80
2023/03/03 10:25:26;;;;;;;212.85;110.80;;;7.50;99.90;;;;;;5011213;28;20062;-79
2023/03/03 10:28:29;;;;;;;220.35;116.47;;;7.40;74.00;;;;;;5012235;28;20064;-78
2023/03/03 10:31:04;;;;;;;214.35;116.40;;;7.60;1.00;;;;;;5013574;28;20042;-80
2023/03/03 10:33:43;;;;;;;206.10;113.22;;;7.80;1.00;;;;;;5012362;28;20050;-79
2023/03/03 10:36:38;;;;;;;205.10;108.05;;;7.90;1.00;;;;;;5013298;28;20045;-80
2023/03/03 10:39:27;;;;;;;194.70;106.13;;;8.00;99.90;;;;;;5011906;28;20128;-80
2023/03/03 10:42:13;;;;;;;188.02;104.50;;;8.20;1.00;;;;;;5012690;28;20046;-79
2023/03/03 10:45:04;;;;;;;177.23;99.43;;;8.40;1.00;;;;;;5011971;28;20076;-80
2023/03/03 10:48:01;;;;;;;173.90;94.38;;;8.70;1.00;;;;;;5013120;28;20307;-80
2023/03/03 10:50:36;;;;;;;162.15;94.25;;;9.10;99.90;;;;;;5008539;28;20062;-80
2023/03/03 10:53:17;;;;;;;162.68;93.15;;;9.30;1.00;;;;;;5010944;28;20038;-80
2023/03/03 10:55:59;;;;;;;178.85;89.70;;;9.40;1.00;;;;;;5008744;28;20395;-82
2023/03/03 10:58:42;;;;;;;152.20;91.68;;;9.60;1.00;;;;;;5014616;28;20037;-81
2023/03/03 11:01:20;;;;;;;147.13;90.55;;;9.80;1.00;;;;;;5014104;28;20530;-81
2023/03/03 11:04:14;;;;;;;147.88;87.13;;;10.00;99.90;;;;;;5029353;28;20157;-80
2023/03/03 11:06:49;;;;;;;143.65;84.47;;;10.30;99.90;;;;;;5029133;28;20462;-81
2023/03/03 11:09:31;;;;;;;143.87;81.27;;;10.60;99.90;;;;;;5014799;28;20488;-80
2023/03/03 11:12:07;;;;;;;145.90;85.13;;;10.70;1.00;;;;;;5015252;28;20080;-79
2023/03/03 11:14:46;;;;;;;136.68;82.35;;;10.70;1.00;;;;;;5020862;28;20137;-80
2023/03/03 11:17:23;;;;;;;135.05;81.10;;;10.60;68.30;;;;;;5016521;28;20064;-81
2023/03/03 11:20:03;;;;;;;134.18;79.88;;;10.70;4.40;;;;;;5045849;28;20038;-80
2023/03/03 11:22:44;;;;;;;134.18;80.75;;;10.60;15.70;;;;;;5037681;28;20566;-80
2023/03/03 11:25:27;;;;;;;140.88;84.82;;;10.50;40.30;;;;;;5037833;28;20060;-80
2023/03/03 11:28:14;;;;;;;131.85;82.20;;;10.40;99.90;;;;;;5024434;28;20053;-81
2023/03/03 11:30:52;;;;;;;125.30;77.00;;;10.50;99.90;;;;;;5019474;28;20470;-80
2023/03/03 11:33:25;;;;;;;128.88;78.20;;;10.60;99.90;;;;;;5016926;28;20045;-80
2023/03/03 11:36:04;;;;;;;122.68;75.07;;;10.60;99.90;;;;;;5014912;28;20587;-79
2023/03/03 11:38:56;;;;;;;121.95;75.22;;;10.30;99.90;;;;;;5014713;28;20076;-81
2023/03/03 11:41:34;;;;;;;125.88;75.90;;;10.20;99.90;;;;;;5014444;28;20061;-80
2023/03/03 11:44:10;;;;;;;123.97;76.45;;;10.00;99.90;;;;;;5016418;28;20045;-80
2023/03/03 11:46:44;;;;;;;121.80;76.57;;;10.10;99.90;;;;;;5031065;28;20069;-79
2023/03/03 11:49:21;;;;;;;116.55;72.25;;;10.00;99.90;;;;;;5016292;28;20130;-80
2023/03/03 11:51:55;;;;;;;126.05;75.53;;;9.80;99.90;;;;;;5019268;28;20062;-81
2023/03/03 11:54:27;;;;;;;125.80;78.15;;;9.90;99.90;;;;;;5017031;28;20075;-81
2023/03/03 11:56:59;;;;;;;136.23;77.35;;;10.00;99.90;;;;;;5019064;28;20084;-82
2023/03/03 11:59:56;;;;;;;130.93;77.50;;;10.00;99.90;;;;;;5030763;28;20038;-80
2023/03/03 12:02:55;;;;;;;128.13;75.15;;;9.70;99.90;;;;;;5023542;28;20045;-80
2023/03/03 12:05:39;;;;;;;128.25;74.53;;;9.70;1.00;;;;;;5030600;28;20077;-80
2023/03/03 12:08:22;;;;;;;127.30;74.25;;;9.60;1.00;;;;;;5022990;28;20046;-81
2023/03/03 12:11:01;;;;;;;133.30;74.65;;;9.70;1.00;;;;;;5019973;28;20361;-80
2023/03/03 12:13:41;;;;;;;135.52;78.07;;;9.80;1.00;;;;;;5026388;28;20497;-80
2023/03/03 12:16:17;;;;;;;131.77;76.43;;;10.00;99.90;;;;;;5033744;28;20049;-79
2023/03/03 12:19:04;;;;;;;145.90;83.55;;;10.00;99.90;;;;;;5033961;28;20033;-81
2023/03/03 12:21:45;;;;;;;133.32;77.47;;;10.00;1.00;;;;;;5033016;28;20025;-81
2023/03/03 12:24:24;;;;;;;138.63;80.75;;;10.20;99.90;;;;;;5032619;28;20038;-81
2023/03/03 12:27:00;;;;;;;132.07;75.68;;;10.40;99.90;;;;;;5046825;28;20115;-80
2023/03/03 12:29:36;;;;;;;125.95;73.60;;;10.50;99.90;;;;;;5042523;28;20046;-79
2023/03/03 12:32:15;;;;;;;123.15;75.40;;;10.60;99.90;;;;;;5032499;28;20037;-79
2023/03/03 12:34:51;;;;;;;120.63;72.55;;;10.70;99.90;;;;;;5034915;28;20049;-80
2023/03/03 12:37:45;;;;;;;121.00;72.25;;;10.70;94.20;;;;;;5034787;28;20051;-80
2023/03/03 12:40:18;;;;;;;116.15;69.55;;;10.80;99.90;;;;;;5033531;28;20030;-80
2023/03/03 12:43:12;;;;;;;105.75;68.22;;;10.90;28.10;;;;;;5031470;28;20132;-81
2023/03/03 12:45:52;;;;;;;115.72;70.13;;;10.90;2.70;;;;;;5014863;28;20053;-79
2023/03/03 12:48:25;;;;;;;113.22;68.28;;;10.50;30.00;;;;;;5015623;28;20104;-81
2023/03/03 12:51:05;;;;;;;112.68;67.70;;;10.60;99.90;;;;;;5017086;28;20042;-81
2023/03/03 12:53:51;;;;;;;107.45;65.20;;;10.60;99.90;;;;;;5014509;28;20117;-80
2023/03/03 12:56:50;;;;;;;109.53;67.53;;;10.50;99.90;;;;;;5015993;28;20072;-78
2023/03/03 12:59:24;;;;;;;107.60;62.63;;;10.50;99.90;;;;;;5005512;28;20133;-76